PDA

Voir la version complète : Learning IFR



STALKER
13/10/2014, 00h07
Hi all

I am learning to fly IFR without FMS and/or GPS and today I have flown from Toulouse to Girona in Spain. I have not a lot of time to take screenshots like flying an airliner, but anyway I have taken some…

LFBO SID PPG UN855 KANIG STAR LEGE

Metar LFBO 121730Z AUTO VRB01KT 9999 NSC 24/14 Q1004
Metar LEGE 121730Z 19010KT 9999 FEW040 20/17 Q1008

Metar LEDA 121330Z VRB01KT 9999 SCT031 ///// Q1008

SID: PPG5B (Runway 32R)
STAR: KANIG1K (Runway 20)

FLIGHT LEVEL: 080

http://i1371.photobucket.com/albums/ag292/STALKER_ANDORRA/Car_C208B_v10_1_zpsa7be4bf9.png

http://i1371.photobucket.com/albums/ag292/STALKER_ANDORRA/Car_C208B_v10_2_zps6d25e5b5.png

http://i1371.photobucket.com/albums/ag292/STALKER_ANDORRA/Car_C208B_v10_3_zpsc0198bcf.png

http://i1371.photobucket.com/albums/ag292/STALKER_ANDORRA/Car_C208B_v10_4_zpsd2cc528d.png

http://i1371.photobucket.com/albums/ag292/STALKER_ANDORRA/Car_C208B_v10_5_zps19cfc5b3.png

Daniel_L
13/10/2014, 22h49
Too many large images. I closed your subject before the end of the images download.

Daniel

STALKER
14/10/2014, 00h45
Please, try again, maybe it was a specific problem…

Regards

guro
14/10/2014, 01h48
Please, try again, maybe it was a specific problem…

Regards

Hi :smile:

The problem is that the *.png pictures are to heavy to load .... :hm:
Example: a png with +/- 2Mb and for the jpg will be around +/- 400kb, you understand that the difference is enormous :SmilSurpris:
The best thing you can do is converting your "*.png" files to "*.jpg" and that will be OK for everybody. :SmilOk:

Gunther :Smilaviateur:

STALKER
15/10/2014, 00h11
Thank you Gunther, I will remember this next time :smile: